| time (UTC) | temp F | wind direction | speed MPH | gust MPH | rain 1hr in | rain 24hr in | rain mn in | humidity % | barometer mb |
| 20260504081856 | 50 | 161 | 2.0 | 5.0 | 0.00 | 0.00 | 0.00 | 63 | 1015.8 |
| 20260504081356 | 49 | 153 | 2.0 | 4.0 | 0.00 | 0.00 | 0.00 | 64 | 1015.8 |
| 20260504080855 | 48 | 137 | 1.0 | 3.0 | 0.00 | 0.00 | 0.00 | 69 | 1015.8 |
| 20260504080350 | 45 | 134 | 0.0 | 2.0 | 0.00 | 0.00 | 0.00 | 81 | 1015.8 |
| 20260504070344 | 45 | 223 | 0.0 | 0.0 | 0.00 | 0.00 | 0.00 | 86 | 1015.8 |
| 20260504050326 | 49 | 132 | 1.0 | 2.0 | 0.00 | 0.00 | 0.00 | 65 | 1016.0 |
| 20260504045324 | 47 | 121 | 1.0 | 2.0 | 0.00 | 0.00 | 0.00 | 72 | 1015.9 |
| 20260504044824 | 45 | 102 | 0.0 | 2.0 | 0.00 | 0.00 | 0.00 | 77 | 1016.0 |
| 20260504044324 | 45 | 80 | 0.0 | 2.0 | 0.00 | 0.00 | 0.00 | 79 | 1016.0 |
| 20260504043822 | 45 | 80 | 0.0 | 2.0 | 0.00 | 0.00 | 0.00 | 80 | 1015.9 |
| 20260504043322 | 44 | 80 | 1.0 | 2.0 | 0.00 | 0.00 | 0.00 | 80 | 1015.8 |
| 20260504042821 | 44 | 80 | 1.0 | 2.0 | 0.00 | 0.00 | 0.00 | 81 | 1015.8 |
| 20260504042320 | 43 | 88 | 0.0 | 2.0 | 0.00 | 0.00 | 0.00 | 83 | 1015.9 |
| 20260504041820 | 43 | 103 | 0.0 | 0.0 | 0.00 | 0.00 | 0.00 | 83 | 1015.8 |
| 20260504041324 | 42 | 103 | 0.0 | 0.0 | 0.00 | 0.00 | 0.00 | 86 | 1015.8 |
| 20260504040818 | 42 | 103 | 0.0 | 0.0 | 0.00 | 0.00 | 0.00 | 86 | 1015.7 |
| 20260504040549 | 42 | 103 | 0.0 | 0.0 | 0.00 | 0.00 | 0.00 | 86 | 1015.6 |
| 20260504040045 | 42 | 103 | 0.0 | 1.0 | 0.00 | 0.00 | 0.00 | 85 | 1015.6 |
| 20260504035314 | 43 | 103 | 0.0 | 1.0 | 0.00 | 0.00 | 0.00 | 84 | 1015.7 |
| 20260504034814 | 43 | 103 | 0.0 | 2.0 | 0.00 | 0.00 | 0.00 | 83 | 1015.7 |
| 20260504034309 | 42 | 103 | 0.0 | 2.0 | 0.00 | 0.00 | 0.00 | 83 | 1015.8 |
| 20260504033809 | 42 | 103 | 0.0 | 2.0 | 0.00 | 0.00 | 0.00 | 85 | 1015.8 |
| 20260504033311 | 42 | 103 | 0.0 | 2.0 | 0.00 | 0.00 | 0.00 | 84 | 1015.7 |
| 20260504032807 | 42 | 104 | 0.0 | 2.0 | 0.00 | 0.00 | 0.00 | 84 | 1015.7 |
| 20260504032307 | 42 | 103 | 1.0 | 1.0 | 0.00 | 0.00 | 0.00 | 82 | 1015.6 |
| 20260504031805 | 42 | 103 | 1.0 | 2.0 | 0.00 | 0.00 | 0.00 | 82 | 1015.7 |
| 20260504031258 | 42 | 103 | 0.0 | 2.0 | 0.00 | 0.00 | 0.00 | 84 | 1015.7 |
| 20260504031025 | 41 | 98 | 0.0 | 2.0 | 0.00 | 0.00 | 0.00 | 83 | 1015.7 |
| 20260504030259 | 41 | 99 | 0.0 | 0.0 | 0.00 | 0.00 | 0.00 | 83 | 1015.9 |
| 20260504025758 | 41 | 99 | 0.0 | 0.0 | 0.00 | 0.00 | 0.00 | 84 | 1015.9 |
| 20260504025258 | 41 | 99 | 0.0 | 0.0 | 0.00 | 0.00 | 0.00 | 83 | 1015.8 |
| 20260504025240 | 41 | 99 | 0.0 | 0.0 | 0.00 | 0.00 | 0.00 | 82 | 1015.8 |
| 20260504024259 | 42 | 99 | 0.0 | 1.0 | 0.00 | 0.00 | 0.00 | 82 | 1015.8 |
| 20260504023759 | 42 | 99 | 0.0 | 1.0 | 0.00 | 0.00 | 0.00 | 81 | 1015.7 |
| 20260504023259 | 42 | 99 | 0.0 | 1.0 | 0.00 | 0.00 | 0.00 | 81 | 1015.8 |
| 20260504022758 | 43 | 99 | 0.0 | 2.0 | 0.00 | 0.00 | 0.00 | 79 | 1015.8 |
| 20260504022258 | 43 | 99 | 0.0 | 2.0 | 0.00 | 0.00 | 0.00 | 79 | 1015.7 |
| 20260504021758 | 43 | 99 | 0.0 | 2.0 | 0.00 | 0.00 | 0.00 | 80 | 1015.8 |
| 20260504021259 | 43 | 100 | 0.0 | 2.0 | 0.00 | 0.00 | 0.00 | 78 | 1015.8 |
| 20260504020759 | 44 | 100 | 0.0 | 2.0 | 0.00 | 0.00 | 0.00 | 77 | 1015.8 |
| 20260504020259 | 44 | 103 | 0.0 | 0.0 | 0.00 | 0.00 | 0.00 | 76 | 1015.7 |
| 20260504015759 | 44 | 103 | 0.0 | 2.0 | 0.00 | 0.00 | 0.00 | 74 | 1015.7 |
| 20260504015259 | 45 | 103 | 0.0 | 2.0 | 0.00 | 0.00 | 0.00 | 74 | 1015.6 |
| 20260504014758 | 45 | 103 | 1.0 | 2.0 | 0.00 | 0.00 | 0.00 | 73 | 1015.4 |
| 20260504014258 | 45 | 102 | 1.0 | 2.0 | 0.00 | 0.00 | 0.00 | 70 | 1015.5 |
| 20260504013756 | 45 | 98 | 0.0 | 2.0 | 0.00 | 0.00 | 0.00 | 70 | 1015.5 |
| 20260504013300 | 46 | 90 | 1.0 | 2.0 | 0.00 | 0.00 | 0.00 | 69 | 1015.5 |
| 20260504012755 | 47 | 90 | 1.0 | 2.0 | 0.00 | 0.00 | 0.00 | 68 | 1015.4 |
| 20260504012254 | 47 | 90 | 1.0 | 2.0 | 0.00 | 0.00 | 0.00 | 67 | 1015.5 |
| 20260504011753 | 47 | 88 | 1.0 | 2.0 | 0.00 | 0.00 | 0.00 | 67 | 1015.4 |
| 20260504011253 | 47 | 95 | 1.0 | 2.0 | 0.00 | 0.00 | 0.00 | 66 | 1015.4 |
| 20260504010756 | 48 | 96 | 1.0 | 2.0 | 0.00 | 0.00 | 0.00 | 65 | 1015.4 |
| 20260504010251 | 49 | 89 | 1.0 | 1.0 | 0.00 | 0.00 | 0.00 | 63 | 1015.3 |
| 20260504005751 | 49 | 82 | 0.0 | 1.0 | 0.00 | 0.00 | 0.00 | 61 | 1015.3 |
| 20260504005250 | 49 | 68 | 0.0 | 2.0 | 0.00 | 0.00 | 0.00 | 63 | 1015.3 |
| 20260504004748 | 49 | 72 | 1.0 | 2.0 | 0.00 | 0.00 | 0.00 | 65 | 1015.2 |
| 20260504004248 | 49 | 144 | 1.0 | 2.0 | 0.00 | 0.00 | 0.00 | 66 | 1015.2 |
| 20260504003748 | 50 | 108 | 1.0 | 2.0 | 0.00 | 0.00 | 0.00 | 62 | 1015.1 |
| 20260504003242 | 51 | 96 | 1.0 | 2.0 | 0.00 | 0.00 | 0.00 | 59 | 1015.1 |
| 20260504002742 | 51 | 96 | 1.0 | 2.0 | 0.00 | 0.00 | 0.00 | 59 | 1015.0 |
| 20260504002241 | 51 | 84 | 0.0 | 2.0 | 0.00 | 0.00 | 0.00 | 58 | 1015.0 |
| 20260504001741 | 51 | 84 | 0.0 | 2.0 | 0.00 | 0.00 | 0.00 | 58 | 1015.0 |
| 20260504001510 | 52 | 80 | 0.0 | 2.0 | 0.00 | 0.00 | 0.00 | 56 | 1015.0 |
| 20260504000745 | 54 | 67 | 0.0 | 1.0 | 0.00 | 0.00 | 0.00 | 52 | 1014.9 |
| 20260504000238 | 54 | 67 | 0.0 | 1.0 | 0.00 | 0.00 | 0.00 | 51 | 1014.9 |
| 20260503235739 | 55 | 67 | 0.0 | 1.0 | 0.00 | 0.00 | 0.00 | 50 | 1014.9 |
| 20260503235503 | 56 | 67 | 0.0 | 0.0 | 0.00 | 0.00 | 0.00 | 44 | 1014.9 |
| 20260503234733 | 56 | 67 | 0.0 | 2.0 | 0.00 | 0.00 | 0.00 | 46 | 1014.7 |
| 20260503234231 | 57 | 67 | 0.0 | 2.0 | 0.00 | 0.00 | 0.00 | 51 | 1014.7 |
| 20260503233729 | 58 | 67 | 0.0 | 2.0 | 0.00 | 0.00 | 0.00 | 41 | 1014.7 |
| 20260503233229 | 58 | 67 | 0.0 | 2.0 | 0.00 | 0.00 | 0.00 | 49 | 1014.6 |
| 20260503232949 | 59 | 61 | 0.0 | 2.0 | 0.00 | 0.00 | 0.00 | 56 | 1014.6 |
| 20260503232453 | 61 | 60 | 0.0 | 2.0 | 0.00 | 0.00 | 0.00 | 37 | 1014.6 |
| 20260503231947 | 61 | 60 | 0.0 | 2.0 | 0.00 | 0.00 | 0.00 | 38 | 1014.6 |
| 20260503231226 | 62 | 34 | 0.0 | 2.0 | 0.00 | 0.00 | 0.00 | 41 | 1014.6 |
| 20260503230730 | 63 | 34 | 0.0 | 2.0 | 0.00 | 0.00 | 0.00 | 34 | 1014.5 |
| 20260503230224 | 63 | 20 | 0.0 | 2.0 | 0.00 | 0.00 | 0.00 | 29 | 1014.4 |
| 20260503225724 | 63 | 277 | 0.0 | 4.0 | 0.00 | 0.00 | 0.00 | 30 | 1014.5 |
| 20260503225223 | 63 | 263 | 1.0 | 4.0 | 0.00 | 0.00 | 0.00 | 32 | 1014.5 |
| 20260503224722 | 63 | 270 | 2.0 | 4.0 | 0.00 | 0.00 | 0.00 | 29 | 1014.4 |
| 20260503224222 | 63 | 301 | 2.0 | 4.0 | 0.00 | 0.00 | 0.00 | 32 | 1014.5 |
| 20260503223722 | 63 | 306 | 2.0 | 7.0 | 0.00 | 0.00 | 0.00 | 28 | 1014.6 |
| 20260503223220 | 64 | 313 | 2.0 | 7.0 | 0.00 | 0.00 | 0.00 | 33 | 1014.6 |
| 20260503222720 | 63 | 16 | 3.0 | 7.0 | 0.00 | 0.00 | 0.00 | 31 | 1014.6 |
| 20260503222224 | 63 | 301 | 4.0 | 8.0 | 0.00 | 0.00 | 0.00 | 27 | 1014.7 |
| 20260503221718 | 63 | 238 | 3.0 | 8.0 | 0.00 | 0.00 | 0.00 | 29 | 1014.7 |
| 20260503221218 | 64 | 235 | 2.0 | 7.0 | 0.00 | 0.00 | 0.00 | 29 | 1014.7 |
| 20260503220943 | 63 | 182 | 3.0 | 7.0 | 0.00 | 0.00 | 0.00 | 28 | 1014.8 |
| 20260503220216 | 64 | 177 | 3.0 | 7.0 | 0.00 | 0.00 | 0.00 | 30 | 1014.7 |
| 20260503215716 | 63 | 138 | 2.0 | 7.0 | 0.00 | 0.00 | 0.00 | 30 | 1014.7 |
| 20260503215216 | 63 | 128 | 3.0 | 7.0 | 0.00 | 0.00 | 0.00 | 27 | 1014.7 |
| 20260503214714 | 63 | 273 | 5.0 | 7.0 | 0.00 | 0.00 | 0.00 | 29 | 1014.7 |
| 20260503214214 | 63 | 295 | 4.0 | 7.0 | 0.00 | 0.00 | 0.00 | 31 | 1014.7 |
| 20260503213719 | 63 | 251 | 3.0 | 8.0 | 0.00 | 0.00 | 0.00 | 30 | 1014.7 |
| 20260503213212 | 63 | 247 | 3.0 | 8.0 | 0.00 | 0.00 | 0.00 | 30 | 1014.8 |
| 20260503212712 | 63 | 237 | 3.0 | 8.0 | 0.00 | 0.00 | 0.00 | 29 | 1014.9 |
| 20260503212429 | 63 | 223 | 3.0 | 10.0 | 0.00 | 0.00 | 0.00 | 34 | 1014.9 |
| 20260503211710 | 63 | 306 | 3.0 | 10.0 | 0.00 | 0.00 | 0.00 | 31 | 1014.9 |
| 20260503211211 | 63 | 305 | 5.0 | 10.0 | 0.00 | 0.00 | 0.00 | 29 | 1014.9 |
| 20260503210710 | 63 | 290 | 6.0 | 10.0 | 0.00 | 0.00 | 0.00 | 33 | 1014.9 |
| 20260503210208 | 64 | 277 | 6.0 | 14.0 | 0.00 | 0.00 | 0.00 | 31 | 1014.9 |
| 20260503205931 | 63 | 287 | 6.0 | 14.0 | 0.00 | 0.00 | 0.00 | 31 | 1014.9 |
| 20260503205212 | 63 | 40 | 7.0 | 15.0 | 0.00 | 0.00 | 0.00 | 30 | 1014.9 |
| 20260503204706 | 63 | 266 | 7.0 | 15.0 | 0.00 | 0.00 | 0.00 | 30 | 1015.0 |
| 20260503204206 | 63 | 240 | 4.0 | 11.0 | 0.00 | 0.00 | 0.00 | 31 | 1015.0 |
| 20260503203706 | 63 | 263 | 5.0 | 12.0 | 0.00 | 0.00 | 0.00 | 31 | 1015.1 |
| 20260503203420 | 63 | 288 | 6.0 | 12.0 | 0.00 | 0.00 | 0.00 | 30 | 1015.1 |
| 20260503202702 | 63 | 281 | 6.0 | 12.0 | 0.00 | 0.00 | 0.00 | 30 | 1015.2 |
| 20260503202201 | 62 | 313 | 6.0 | 12.0 | 0.00 | 0.00 | 0.00 | 32 | 1015.3 |
| 20260503201700 | 62 | 284 | 6.0 | 12.0 | 0.00 | 0.00 | 0.00 | 31 | 1015.2 |
| 20260503201200 | 62 | 213 | 4.0 | 12.0 | 0.00 | 0.00 | 0.00 | 34 | 1015.3 |
| 20260503200659 | 62 | 287 | 3.0 | 7.0 | 0.00 | 0.00 | 0.00 | 33 | 1015.5 |
| 20260503200158 | 61 | 343 | 4.0 | 12.0 | 0.00 | 0.00 | 0.00 | 31 | 1015.5 |
| 20260503195658 | 61 | 245 | 4.0 | 12.0 | 0.00 | 0.00 | 0.00 | 32 | 1015.6 |
| 20260503195203 | 62 | 189 | 4.0 | 13.0 | 0.00 | 0.00 | 0.00 | 33 | 1015.7 |
| 20260503194655 | 62 | 227 | 4.0 | 13.0 | 0.00 | 0.00 | 0.00 | 34 | 1015.8 |
| 20260503194155 | 61 | 347 | 2.0 | 11.0 | 0.00 | 0.00 | 0.00 | 33 | 1015.8 |
| 20260503193656 | 60 | 269 | 2.0 | 14.0 | 0.00 | 0.00 | 0.00 | 36 | 1015.9 |
| 20260503193156 | 60 | 53 | 5.0 | 14.0 | 0.00 | 0.00 | 0.00 | 33 | 1016.1 |
| 20260503192700 | 60 | 319 | 7.0 | 14.0 | 0.00 | 0.00 | 0.00 | 36 | 1016.2 |
| 20260503192154 | 61 | 298 | 8.0 | 14.0 | 0.00 | 0.00 | 0.00 | 32 | 1016.3 |
| 20260503191921 | 61 | 302 | 4.0 | 13.0 | 0.00 | 0.00 | 0.00 | 34 | 1016.3 |
| 20260503191153 | 61 | 307 | 3.0 | 13.0 | 0.00 | 0.00 | 0.00 | 39 | 1016.3 |
| 20260503190652 | 61 | 276 | 6.0 | 18.0 | 0.00 | 0.00 | 0.00 | 35 | 1016.4 |
| 20260503190151 | 60 | 258 | 7.0 | 18.0 | 0.00 | 0.00 | 0.00 | 33 | 1016.5 |
| 20260503185657 | 59 | 277 | 8.0 | 18.0 | 0.00 | 0.00 | 0.00 | 36 | 1016.6 |
| 20260503185146 | 60 | 254 | 7.0 | 18.0 | 0.00 | 0.00 | 0.00 | 35 | 1016.5 |
| 20260503184646 | 61 | 319 | 3.0 | 8.0 | 0.00 | 0.00 | 0.00 | 34 | 1016.6 |
| 20260503184151 | 61 | 157 | 4.0 | 15.0 | 0.00 | 0.00 | 0.00 | 36 | 1016.7 |
| 20260503183905 | 60 | 316 | 4.0 | 15.0 | 0.00 | 0.00 | 0.00 | 36 | 1016.8 |
| 20260503183142 | 60 | 345 | 6.0 | 15.0 | 0.00 | 0.00 | 0.00 | 39 | 1016.9 |
| 20260503182636 | 59 | 290 | 6.0 | 15.0 | 0.00 | 0.00 | 0.00 | 37 | 1017.0 |
| 20260503182357 | 59 | 269 | 5.0 | 12.0 | 0.00 | 0.00 | 0.00 | 34 | 1016.9 |
| 20260503181635 | 58 | 321 | 6.0 | 12.0 | 0.00 | 0.00 | 0.00 | 33 | 1017.0 |
| 20260503181136 | 59 | 236 | 6.0 | 12.0 | 0.00 | 0.00 | 0.00 | 36 | 1016.9 |
| 20260503180636 | 60 | 281 | 5.0 | 12.0 | 0.00 | 0.00 | 0.00 | 34 | 1017.0 |
| 20260503180130 | 59 | 266 | 5.0 | 11.0 | 0.00 | 0.00 | 0.00 | 35 | 1016.9 |
| 20260503175630 | 59 | 309 | 6.0 | 13.0 | 0.00 | 0.00 | 0.00 | 37 | 1017.0 |
| 20260503175355 | 58 | 298 | 8.0 | 14.0 | 0.00 | 0.00 | 0.00 | 35 | 1017.1 |
| 20260503174854 | 58 | 235 | 5.0 | 14.0 | 0.00 | 0.00 | 0.00 | 36 | 1017.1 |
| 20260503174129 | 59 | 301 | 4.0 | 12.0 | 0.00 | 0.00 | 0.00 | 38 | 1017.2 |
| 20260503173630 | 58 | 5 | 5.0 | 14.0 | 0.00 | 0.00 | 0.00 | 34 | 1017.2 |
| 20260503173129 | 58 | 19 | 5.0 | 14.0 | 0.00 | 0.00 | 0.00 | 38 | 1017.2 |
| 20260503172629 | 58 | 32 | 6.0 | 14.0 | 0.00 | 0.00 | 0.00 | 39 | 1017.2 |
| 20260503172129 | 57 | 349 | 8.0 | 14.0 | 0.00 | 0.00 | 0.00 | 35 | 1017.4 |
| 20260503171856 | 57 | 328 | 7.0 | 13.0 | 0.00 | 0.00 | 0.00 | 37 | 1017.5 |
| 20260503171355 | 57 | 333 | 6.0 | 15.0 | 0.00 | 0.00 | 0.00 | 38 | 1017.5 |
| 20260503170630 | 57 | 336 | 6.0 | 15.0 | 0.00 | 0.00 | 0.00 | 40 | 1017.5 |
| 20260503170129 | 56 | 292 | 5.0 | 12.0 | 0.00 | 0.00 | 0.00 | 37 | 1017.6 |
| 20260503160116 | 54 | 273 | 10.0 | 15.0 | 0.00 | 0.00 | 0.00 | 39 | 1018.2 |
| 20260503150615 | 52 | 293 | 5.0 | 16.0 | 0.00 | 0.00 | 0.00 | 41 | 1018.5 |
| 20260503150105 | 52 | 277 | 7.0 | 16.0 | 0.00 | 0.00 | 0.00 | 45 | 1018.5 |
| 20260503140106 | 50 | 313 | 9.0 | 18.0 | 0.00 | 0.00 | 0.00 | 44 | 1018.7 |
| 20260503131047 | 49 | 310 | 5.0 | 12.0 | 0.00 | 0.00 | 0.00 | 50 | 1018.4 |
| 20260503130547 | 49 | 332 | 5.0 | 11.0 | 0.00 | 0.00 | 0.00 | 49 | 1018.4 |
| 20260503110530 | 36 | 107 | 0.0 | 2.0 | 0.00 | 0.00 | 0.00 | 89 | 1017.7 |